createdAt,value
2018-10-16T00:01:31.760Z,100452.50
2018-10-16T00:04:00.823Z,100460.32
2018-10-16T00:06:29.175Z,100473.39
2018-10-16T00:08:57.671Z,100495.77
2018-10-16T00:11:26.054Z,100491.06
2018-10-16T00:13:54.478Z,100489.78
2018-10-16T00:16:22.887Z,100483.14
2018-10-16T00:18:51.701Z,100485.70
2018-10-16T00:21:20.078Z,100486.93
2018-10-16T00:23:48.461Z,100483.92
2018-10-16T00:26:16.815Z,100484.42
2018-10-16T00:28:45.199Z,100479.23
2018-10-16T00:31:13.605Z,100483.56
2018-10-16T00:33:42.025Z,100488.22
2018-10-16T00:36:10.465Z,100485.70
2018-10-16T00:38:38.958Z,100487.41
2018-10-16T00:41:07.648Z,100487.91
2018-10-16T00:43:36.051Z,100486.60
2018-10-16T00:46:04.504Z,100493.46
2018-10-16T00:48:32.957Z,100490.98
2018-10-16T00:51:01.546Z,100491.78
2018-10-16T00:53:30.049Z,100489.64
2018-10-16T00:55:58.474Z,100494.58
2018-10-16T00:58:27.009Z,100493.38
2018-10-16T01:00:56.324Z,100500.18
2018-10-16T01:03:24.734Z,100492.59
2018-10-16T01:05:53.332Z,100490.05
2018-10-16T01:08:21.767Z,100491.75
2018-10-16T01:10:50.201Z,100493.90
2018-10-16T01:13:18.667Z,100491.00
2018-10-16T01:15:47.109Z,100491.00
2018-10-16T01:18:15.519Z,100496.26
2018-10-16T01:20:43.977Z,100492.86
2018-10-16T01:23:12.445Z,100496.68
2018-10-16T01:25:40.885Z,100500.19
2018-10-16T01:28:09.524Z,100497.28
2018-10-16T01:30:37.983Z,100496.59
2018-10-16T01:33:06.386Z,100495.61
2018-10-16T01:35:34.743Z,100501.77
2018-10-16T01:38:03.179Z,100500.96
2018-10-16T01:40:31.658Z,100495.88
2018-10-16T01:43:00.150Z,100492.95
2018-10-16T01:45:28.667Z,100489.62
2018-10-16T01:47:57.885Z,100489.75
2018-10-16T01:50:26.297Z,100487.92
2018-10-16T01:52:54.703Z,100488.14
2018-10-16T01:55:23.229Z,100494.53
2018-10-16T01:57:51.836Z,100488.98
2018-10-16T02:00:20.239Z,100501.41
2018-10-16T02:02:48.665Z,100497.22
2018-10-16T02:05:17.162Z,100504.48
2018-10-16T02:07:45.596Z,100502.92
2018-10-16T02:10:14.123Z,100503.81
2018-10-16T02:12:42.548Z,100499.66
2018-10-16T02:15:11.006Z,100496.70
2018-10-16T02:17:40.327Z,100492.87
2018-10-16T02:20:09.590Z,100493.34
2018-10-16T02:22:38.681Z,100494.19
2018-10-16T02:25:07.682Z,100496.86
2018-10-16T02:27:36.127Z,100499.02
2018-10-16T02:30:05.011Z,100502.04
2018-10-16T02:32:34.074Z,100500.96
2018-10-16T02:35:02.861Z,100508.02
2018-10-16T02:37:31.351Z,100510.95
2018-10-16T02:39:59.839Z,100512.70
2018-10-16T02:42:28.262Z,100515.66
2018-10-16T02:44:56.764Z,100526.26
2018-10-16T02:47:25.172Z,100525.80
2018-10-16T02:49:53.611Z,100530.45
2018-10-16T02:52:22.525Z,100526.31
2018-10-16T02:54:51.375Z,100534.18
2018-10-16T02:57:19.869Z,100524.43
2018-10-16T02:59:48.295Z,100518.90
2018-10-16T03:02:16.880Z,100521.46
2018-10-16T03:04:45.764Z,100521.84
2018-10-16T03:07:14.167Z,100520.97
2018-10-16T03:09:42.623Z,100523.71
2018-10-16T03:12:11.126Z,100515.57
2018-10-16T03:14:39.482Z,100530.83
2018-10-16T03:17:08.120Z,100521.58
2018-10-16T03:19:36.547Z,100527.50
2018-10-16T03:22:05.018Z,100529.63
2018-10-16T03:24:33.450Z,100532.21
2018-10-16T03:27:02.221Z,100529.19
2018-10-16T03:29:30.590Z,100530.57
2018-10-16T03:31:59.688Z,100534.41
2018-10-16T03:34:28.057Z,100528.52
2018-10-16T03:36:56.574Z,100532.83
2018-10-16T03:39:25.107Z,100535.45
2018-10-16T03:41:53.481Z,100536.35
2018-10-16T03:44:21.926Z,100535.38
2018-10-16T03:46:50.503Z,100540.91
2018-10-16T03:49:18.979Z,100543.92
2018-10-16T03:51:47.396Z,100545.53
2018-10-16T03:54:15.890Z,100544.78
2018-10-16T03:56:44.245Z,100545.75
2018-10-16T03:59:13.030Z,100544.91
2018-10-16T04:01:41.397Z,100549.98
2018-10-16T04:04:09.799Z,100547.03
2018-10-16T04:06:38.267Z,100543.74
2018-10-16T04:09:07.551Z,100549.74
2018-10-16T04:11:35.978Z,100553.11
2018-10-16T04:14:04.383Z,100560.28
2018-10-16T04:16:32.944Z,100556.00
2018-10-16T04:19:01.387Z,100559.89
2018-10-16T04:21:38.540Z,100553.91
2018-10-16T04:24:07.600Z,100553.59
2018-10-16T04:26:36.004Z,100550.13
2018-10-16T04:29:04.443Z,100553.11
2018-10-16T04:31:32.896Z,100556.50
2018-10-16T04:34:01.368Z,100552.23
2018-10-16T04:36:30.127Z,100547.92
2018-10-16T04:38:58.887Z,100553.82
2018-10-16T04:41:27.569Z,100553.82
2018-10-16T04:43:56.482Z,100561.09
2018-10-16T04:46:26.231Z,100555.09
2018-10-16T04:48:54.655Z,100559.36
2018-10-16T04:51:23.093Z,100561.04
2018-10-16T04:53:51.547Z,100568.30
2018-10-16T04:56:20.067Z,100571.69
2018-10-16T04:58:48.739Z,100577.64
2018-10-16T05:01:17.314Z,100577.20
2018-10-16T05:03:45.740Z,100581.05
2018-10-16T05:06:14.171Z,100581.87
2018-10-16T05:08:42.606Z,100581.80
2018-10-16T05:11:11.043Z,100583.13
2018-10-16T05:13:39.474Z,100587.38
2018-10-16T05:16:07.922Z,100586.55
2018-10-16T05:18:36.293Z,100580.52
2018-10-16T05:21:05.054Z,100586.40
2018-10-16T05:23:33.543Z,100580.05
2018-10-16T05:26:02.009Z,100584.27
2018-10-16T05:28:30.631Z,100590.59
2018-10-16T05:30:59.144Z,100590.16
2018-10-16T05:33:27.543Z,100588.86
2018-10-16T05:35:56.007Z,100590.98
2018-10-16T05:38:24.462Z,100589.70
2018-10-16T05:40:52.944Z,100593.97
2018-10-16T05:43:21.853Z,100596.53
2018-10-16T05:45:50.462Z,100596.51
2018-10-16T05:48:18.899Z,100597.29
2018-10-16T05:50:47.275Z,100600.30
2018-10-16T05:53:15.656Z,100603.69
2018-10-16T05:55:44.057Z,100605.39
2018-10-16T05:58:13.313Z,100606.22
2018-10-16T06:00:43.327Z,100618.58
2018-10-16T06:03:12.213Z,100626.20
2018-10-16T06:05:40.652Z,100626.64
2018-10-16T06:08:09.159Z,100630.03
2018-10-16T06:10:37.783Z,100634.63
2018-10-16T06:13:06.295Z,100636.80
2018-10-16T06:15:34.724Z,100637.19
2018-10-16T06:18:03.274Z,100643.14
2018-10-16T06:20:31.734Z,100646.52
2018-10-16T06:23:00.175Z,100644.84
2018-10-16T06:25:28.657Z,100646.95
2018-10-16T06:27:57.096Z,100657.95
2018-10-16T06:30:25.481Z,100660.48
2018-10-16T06:32:54.278Z,100660.87
2018-10-16T06:35:22.807Z,100662.53
2018-10-16T06:37:51.227Z,100654.79
2018-10-16T06:40:19.633Z,100663.30
2018-10-16T06:42:48.004Z,100671.86
2018-10-16T06:45:16.476Z,100670.06
2018-10-16T06:47:45.062Z,100675.92
2018-10-16T06:50:14.276Z,100673.72
2018-10-16T06:52:42.705Z,100671.97
2018-10-16T06:55:11.658Z,100673.98
2018-10-16T06:57:40.041Z,100675.17
2018-10-16T07:00:08.669Z,100681.05
2018-10-16T07:02:37.064Z,100687.00
2018-10-16T07:05:07.106Z,100684.73
2018-10-16T07:07:35.510Z,100682.53
2018-10-16T07:10:04.072Z,100688.92
2018-10-16T07:12:32.477Z,100690.22
2018-10-16T07:15:00.975Z,100685.08
2018-10-16T07:17:29.315Z,100681.52
2018-10-16T07:19:57.747Z,100676.73
2018-10-16T07:22:26.802Z,100683.48
2018-10-16T07:24:55.274Z,100683.42
2018-10-16T07:27:23.783Z,100687.57
2018-10-16T07:29:52.459Z,100692.48
2018-10-16T07:32:20.823Z,100694.02
2018-10-16T07:34:49.774Z,100698.53
2018-10-16T07:37:18.154Z,100697.08
2018-10-16T07:39:46.605Z,100690.94
2018-10-16T07:42:15.174Z,100699.65
2018-10-16T07:44:43.570Z,100695.94
2018-10-16T07:47:11.968Z,100690.80
2018-10-16T07:49:40.348Z,100688.44
2018-10-16T07:52:09.765Z,100686.40
2018-10-16T07:54:38.549Z,100694.37
2018-10-16T07:57:07.006Z,100697.19
2018-10-16T07:59:35.395Z,100702.02
2018-10-16T08:02:03.841Z,100705.67
2018-10-16T08:04:32.329Z,100704.64
2018-10-16T08:07:00.770Z,100711.14
2018-10-16T08:09:29.999Z,100716.55
2018-10-16T08:11:58.391Z,100711.03
2018-10-16T08:14:26.808Z,100714.17
2018-10-16T08:16:55.244Z,100714.78
2018-10-16T08:19:23.748Z,100717.53
2018-10-16T08:21:52.120Z,100716.33
2018-10-16T08:24:20.505Z,100712.31
2018-10-16T08:26:49.060Z,100721.23
2018-10-16T08:29:18.072Z,100722.31
2018-10-16T08:31:46.514Z,100722.80
2018-10-16T08:34:15.017Z,100722.92
2018-10-16T08:36:43.555Z,100727.88
2018-10-16T08:39:19.424Z,100726.44
2018-10-16T08:41:59.309Z,100723.28
2018-10-16T08:44:42.717Z,100726.75
2018-10-16T08:49:23.790Z,100727.87
2018-10-16T08:51:53.462Z,100730.88
2018-10-16T08:54:24.210Z,100732.49
2018-10-16T08:56:52.941Z,100732.49
2018-10-16T08:59:21.372Z,100730.56
2018-10-16T09:01:49.826Z,100736.67
2018-10-16T09:04:18.193Z,100750.43
2018-10-16T09:06:46.677Z,100747.16
2018-10-16T09:09:16.645Z,100748.70
2018-10-16T09:11:46.352Z,100753.50
2018-10-16T09:14:15.488Z,100748.98
2018-10-16T09:16:43.916Z,100751.30
2018-10-16T09:19:12.462Z,100752.91
2018-10-16T09:21:40.865Z,100755.15
2018-10-16T09:24:09.300Z,100756.68
2018-10-16T09:26:37.748Z,100761.94
2018-10-16T09:29:06.479Z,100761.17
2018-10-16T09:31:35.518Z,100763.70
2018-10-16T09:34:04.007Z,100755.14
2018-10-16T09:36:32.557Z,100752.70
2018-10-16T09:39:01.717Z,100766.45
2018-10-16T09:41:30.920Z,100764.52
2018-10-16T09:44:00.232Z,100768.83
2018-10-16T09:46:29.329Z,100767.77
2018-10-16T09:48:57.786Z,100770.91
2018-10-16T09:51:26.192Z,100762.00
2018-10-16T09:53:54.659Z,100761.61
2018-10-16T09:56:23.224Z,100757.33
2018-10-16T09:58:51.698Z,100757.55
2018-10-16T10:01:25.313Z,100754.48
2018-10-16T10:03:53.739Z,100748.73
2018-10-16T10:06:22.668Z,100760.28
2018-10-16T10:08:51.101Z,100764.27
2018-10-16T10:11:19.927Z,100765.24
2018-10-16T10:13:48.629Z,100767.59
2018-10-16T10:16:17.484Z,100765.77
2018-10-16T10:18:45.901Z,100763.50
2018-10-16T10:21:14.339Z,100759.06
2018-10-16T10:23:42.902Z,100760.73
2018-10-16T10:26:11.374Z,100767.50
2018-10-16T10:28:39.787Z,100763.11
2018-10-16T10:31:08.238Z,100766.25
2018-10-16T10:33:36.791Z,100770.37
2018-10-16T10:36:05.866Z,100762.93
2018-10-16T10:38:34.327Z,100765.73
2018-10-16T10:41:02.916Z,100766.17
2018-10-16T10:43:31.335Z,100763.47
2018-10-16T10:45:59.741Z,100762.47
2018-10-16T10:48:28.274Z,100760.84
2018-10-16T10:50:56.813Z,100762.06
2018-10-16T10:53:25.107Z,100757.12
2018-10-16T10:55:53.521Z,100748.38
2018-10-16T10:58:21.904Z,100755.33
2018-10-16T11:00:50.292Z,100752.90
2018-10-16T11:03:18.797Z,100754.74
2018-10-16T11:05:47.082Z,100752.56
2018-10-16T11:08:15.521Z,100742.64
2018-10-16T11:10:43.949Z,100741.96
2018-10-16T11:13:12.356Z,100740.94
2018-10-16T11:15:40.820Z,100740.75
2018-10-16T11:18:09.297Z,100735.95
2018-10-16T11:20:37.684Z,100739.39
2018-10-16T11:23:06.359Z,100734.55
2018-10-16T11:25:34.703Z,100738.64
2018-10-16T11:28:03.374Z,100736.03
2018-10-16T11:30:31.872Z,100734.50
2018-10-16T11:33:00.344Z,100734.94
2018-10-16T11:35:29.243Z,100738.02
2018-10-16T11:37:57.712Z,100737.94
2018-10-16T11:40:26.119Z,100745.04
2018-10-16T11:42:54.554Z,100744.02
2018-10-16T11:45:22.991Z,100747.55
2018-10-16T11:47:51.499Z,100749.80
2018-10-16T11:50:19.921Z,100740.80
2018-10-16T11:52:48.372Z,100742.11
2018-10-16T11:55:16.785Z,100740.45
2018-10-16T11:57:45.616Z,100738.30
2018-10-16T12:00:17.153Z,100736.62
2018-10-16T12:02:45.878Z,100735.86
2018-10-16T12:05:14.436Z,100735.67
2018-10-16T12:07:43.148Z,100744.34
2018-10-16T12:10:11.561Z,100740.70
2018-10-16T12:12:40.053Z,100746.38
2018-10-16T12:15:08.666Z,100746.38
2018-10-16T12:18:48.204Z,100750.47
2018-10-16T12:21:19.109Z,100735.73
2018-10-16T12:23:47.712Z,100737.84
2018-10-16T12:26:16.874Z,100736.92
2018-10-16T12:28:45.468Z,100735.89
2018-10-16T12:31:14.067Z,100730.64
2018-10-16T12:33:42.554Z,100729.72
2018-10-16T12:36:10.971Z,100726.90
2018-10-16T12:38:39.449Z,100729.33
2018-10-16T12:41:07.900Z,100728.20
2018-10-16T12:43:37.017Z,100732.47
2018-10-16T12:46:05.769Z,100729.20
2018-10-16T12:48:34.149Z,100726.13
2018-10-16T12:51:03.201Z,100723.98
2018-10-16T12:53:31.565Z,100727.91
2018-10-16T12:56:01.251Z,100731.38
2018-10-16T12:58:29.671Z,100729.95
2018-10-16T13:00:58.132Z,100733.63
2018-10-16T13:03:26.694Z,100731.77
2018-10-16T13:05:55.119Z,100737.91
2018-10-16T13:08:23.605Z,100726.98
2018-10-16T13:10:51.991Z,100736.77
2018-10-16T13:13:20.462Z,100738.08
2018-10-16T13:15:48.982Z,100742.08
2018-10-16T13:18:17.349Z,100741.95
2018-10-16T13:20:46.017Z,100734.72
2018-10-16T13:23:14.540Z,100736.59
2018-10-16T13:25:43.268Z,100737.34
2018-10-16T13:28:11.800Z,100738.34
2018-10-16T13:30:40.171Z,100738.73
2018-10-16T13:33:11.878Z,100736.38
2018-10-16T13:35:40.454Z,100733.42
2018-10-16T13:38:09.224Z,100739.00
2018-10-16T13:40:37.916Z,100735.91
2018-10-16T13:43:06.681Z,100730.25
2018-10-16T13:45:35.266Z,100731.91
2018-10-16T13:48:04.154Z,100734.16
2018-10-16T13:50:32.631Z,100733.59
2018-10-16T13:53:01.322Z,100730.45
2018-10-16T13:55:30.059Z,100731.34
2018-10-16T13:57:58.619Z,100733.95
2018-10-16T14:00:27.306Z,100734.99
2018-10-16T14:02:56.016Z,100727.08
2018-10-16T14:05:24.805Z,100731.08
2018-10-16T14:07:53.410Z,100730.91
2018-10-16T14:10:21.907Z,100734.55
2018-10-16T14:12:50.339Z,100734.58
2018-10-16T14:15:19.068Z,100735.86
2018-10-16T14:17:47.751Z,100737.84
2018-10-16T14:20:16.335Z,100737.94
2018-10-16T14:22:44.856Z,100732.23
2018-10-16T14:25:14.810Z,100740.55
2018-10-16T14:27:43.779Z,100735.80
2018-10-16T14:30:13.471Z,100743.53
2018-10-16T14:32:43.751Z,100740.95
2018-10-16T14:35:12.949Z,100740.00
2018-10-16T14:37:42.317Z,100742.44
2018-10-16T14:40:13.225Z,100744.10
2018-10-16T14:42:42.030Z,100741.76
2018-10-16T14:45:12.154Z,100740.36
2018-10-16T14:50:09.043Z,100742.05
2018-10-16T14:52:37.640Z,100745.97
2018-10-16T14:55:06.582Z,100753.17
2018-10-16T14:57:35.634Z,100753.99
2018-10-16T15:00:04.339Z,100754.38
2018-10-16T15:02:32.911Z,100753.09
2018-10-16T15:05:01.533Z,100752.52
2018-10-16T15:07:30.894Z,100747.59
2018-10-16T15:09:59.565Z,100747.68
2018-10-16T15:12:33.029Z,100746.58
2018-10-16T15:15:02.727Z,100755.13
2018-10-16T15:17:32.033Z,100753.28
2018-10-16T15:20:01.185Z,100750.58
2018-10-16T15:22:30.178Z,100754.76
2018-10-16T15:24:59.046Z,100748.80
2018-10-16T15:27:27.681Z,100749.83
2018-10-16T15:29:56.234Z,100753.28
2018-10-16T15:32:24.906Z,100756.89
2018-10-16T15:34:53.488Z,100757.98
2018-10-16T15:37:22.085Z,100759.77
2018-10-16T15:39:50.744Z,100756.69
2018-10-16T15:42:19.663Z,100755.11
2018-10-16T15:44:48.588Z,100756.94
2018-10-16T15:47:18.401Z,100758.31
2018-10-16T15:49:47.222Z,100758.39
2018-10-16T15:52:15.848Z,100763.59
2018-10-16T15:54:44.618Z,100764.50
2018-10-16T15:57:13.357Z,100760.86
2018-10-16T15:59:42.083Z,100764.41
2018-10-16T16:02:10.867Z,100766.24
2018-10-16T16:04:39.523Z,100769.86
2018-10-16T16:07:08.431Z,100774.11
2018-10-16T16:09:37.344Z,100772.67
2018-10-16T16:12:07.877Z,100769.22
2018-10-16T16:14:36.829Z,100771.33
2018-10-16T16:17:05.711Z,100767.00
2018-10-16T16:19:34.731Z,100772.25
2018-10-16T16:22:04.097Z,100775.44
2018-10-16T16:24:32.906Z,100773.19
2018-10-16T16:27:02.516Z,100770.27
2018-10-16T16:29:31.603Z,100770.59
2018-10-16T16:32:00.458Z,100767.55
2018-10-16T16:34:29.492Z,100777.14
2018-10-16T16:37:03.122Z,100777.78
2018-10-16T16:39:32.901Z,100778.63
2018-10-16T16:42:01.735Z,100781.53
2018-10-16T16:44:31.133Z,100781.78
2018-10-16T16:47:00.004Z,100783.91
2018-10-16T16:49:30.098Z,100787.75
2018-10-16T16:51:59.273Z,100790.98
2018-10-16T16:54:28.541Z,100795.63
2018-10-16T16:56:58.263Z,100792.50
2018-10-16T16:59:27.628Z,100798.98
2018-10-16T17:01:56.725Z,100801.60
2018-10-16T17:04:25.957Z,100802.06
2018-10-16T17:09:35.900Z,100805.94
2018-10-16T17:12:05.179Z,100808.75
2018-10-16T17:14:34.104Z,100805.27
2018-10-16T17:17:03.191Z,100807.48
2018-10-16T17:19:32.157Z,100809.65
2018-10-16T17:22:01.156Z,100809.80
2018-10-16T17:24:30.204Z,100806.66
2018-10-16T17:27:01.010Z,100812.36
2018-10-16T17:29:31.907Z,100815.81
2018-10-16T17:32:04.221Z,100818.41
2018-10-16T17:34:34.514Z,100820.91
2018-10-16T17:37:05.956Z,100813.28
2018-10-16T17:39:37.007Z,100814.47
2018-10-16T17:42:06.176Z,100811.73
2018-10-16T17:44:38.936Z,100816.81
2018-10-16T17:47:12.486Z,100817.08
2018-10-16T17:49:44.310Z,100817.02
2018-10-16T17:52:17.752Z,100818.31
2018-10-16T17:54:50.187Z,100825.41
2018-10-16T17:57:23.484Z,100823.54
2018-10-16T17:59:59.169Z,100825.95
2018-10-16T18:02:32.120Z,100828.66
2018-10-16T18:05:04.170Z,100827.02
2018-10-16T18:07:36.406Z,100823.22
2018-10-16T18:10:09.345Z,100824.06
2018-10-16T18:15:32.119Z,100822.39
2018-10-16T18:18:00.855Z,100825.17
2018-10-16T18:23:46.270Z,100824.73
2018-10-16T18:26:18.050Z,100825.08
2018-10-16T18:28:48.497Z,100836.52
2018-10-16T18:31:17.796Z,100832.25
2018-10-16T18:33:48.661Z,100824.83
2018-10-16T18:36:17.196Z,100827.88
2018-10-16T18:38:48.125Z,100822.94
2018-10-16T18:41:22.369Z,100819.56
2018-10-16T18:43:54.657Z,100840.67
2018-10-16T18:46:28.144Z,100831.26
2018-10-16T18:48:57.502Z,100840.45
2018-10-16T18:51:26.123Z,100846.96
2018-10-16T18:53:55.005Z,100848.90
2018-10-16T18:56:23.839Z,100852.55
2018-10-16T18:58:52.978Z,100849.68
2018-10-16T19:01:22.037Z,100850.95
2018-10-16T19:03:50.602Z,100853.96
2018-10-16T19:06:19.576Z,100852.69
2018-10-16T19:08:48.257Z,100851.77
2018-10-16T19:11:16.862Z,100847.28
2018-10-16T19:13:45.516Z,100848.61
2018-10-16T19:16:14.508Z,100846.17
2018-10-16T19:18:43.125Z,100849.84
2018-10-16T19:21:11.840Z,100854.22
2018-10-16T19:23:40.472Z,100856.06
2018-10-16T19:26:09.159Z,100855.44
2018-10-16T19:28:38.017Z,100852.52
2018-10-16T19:31:06.716Z,100855.36
2018-10-16T19:33:36.462Z,100856.48
2018-10-16T19:36:05.562Z,100857.14
2018-10-16T19:38:34.318Z,100857.06
2018-10-16T19:41:02.912Z,100857.00
2018-10-16T19:43:34.789Z,100854.66
2018-10-16T19:46:03.453Z,100856.91
2018-10-16T19:48:32.210Z,100850.31
2018-10-16T19:51:01.199Z,100853.94
2018-10-16T19:53:30.322Z,100858.30
2018-10-16T19:55:58.915Z,100858.80
2018-10-16T19:58:27.493Z,100850.91
2018-10-16T20:00:56.107Z,100856.07
2018-10-16T20:03:25.374Z,100853.11
2018-10-16T20:05:54.082Z,100850.56
2018-10-16T20:08:22.746Z,100856.72
2018-10-16T20:10:51.700Z,100856.11
2018-10-16T20:13:20.242Z,100852.66
2018-10-16T20:15:49.212Z,100851.89
2018-10-16T20:18:17.898Z,100855.84
2018-10-16T20:20:47.339Z,100855.05
2018-10-16T20:23:15.982Z,100856.38
2018-10-16T20:25:44.678Z,100856.77
2018-10-16T20:28:13.322Z,100856.11
2018-10-16T20:30:41.909Z,100852.08
2018-10-16T20:33:25.958Z,100855.57
2018-10-16T20:35:54.658Z,100855.57
2018-10-16T20:38:23.311Z,100859.44
2018-10-16T20:40:51.895Z,100857.35
2018-10-16T20:43:20.515Z,100855.79
2018-10-16T20:45:49.034Z,100855.59
2018-10-16T20:48:17.778Z,100857.82
2018-10-16T20:50:46.316Z,100859.14
2018-10-16T20:53:14.904Z,100861.38
2018-10-16T20:55:43.382Z,100859.67
2018-10-16T20:58:11.975Z,100858.03
2018-10-16T21:00:42.892Z,100861.31
2018-10-16T21:03:14.739Z,100869.05
2018-10-16T21:05:46.119Z,100866.98
2018-10-16T21:08:14.600Z,100864.90
2018-10-16T21:10:43.325Z,100870.55
2018-10-16T21:13:11.841Z,100866.53
2018-10-16T21:15:40.799Z,100870.78
2018-10-16T21:18:09.257Z,100866.08
2018-10-16T21:20:37.804Z,100868.30
2018-10-16T21:23:06.808Z,100864.22
2018-10-16T21:25:35.284Z,100864.73
2018-10-16T21:28:03.899Z,100863.16
2018-10-16T21:30:32.881Z,100864.78
2018-10-16T21:33:01.458Z,100866.06
2018-10-16T21:35:30.706Z,100859.82
2018-10-16T21:37:59.503Z,100858.24
2018-10-16T21:40:28.214Z,100859.41
2018-10-16T21:42:56.785Z,100866.27
2018-10-16T21:45:25.585Z,100859.50
2018-10-16T21:47:54.022Z,100863.45
2018-10-16T21:50:22.466Z,100856.73
2018-10-16T21:52:51.089Z,100858.98
2018-10-16T21:55:19.581Z,100853.50
2018-10-16T21:57:48.072Z,100853.66
2018-10-16T22:00:21.828Z,100844.16
2018-10-16T22:02:50.791Z,100848.78
2018-10-16T22:05:22.031Z,100846.89
2018-10-16T22:07:51.960Z,100848.66
2018-10-16T22:10:20.966Z,100846.17
2018-10-16T22:12:49.400Z,100845.02
2018-10-16T22:15:19.190Z,100845.52
2018-10-16T22:17:47.637Z,100845.52
2018-10-16T22:20:16.076Z,100843.06
2018-10-16T22:22:45.314Z,100844.47
2018-10-16T22:25:14.548Z,100840.76
2018-10-16T22:27:43.049Z,100839.95
2018-10-16T22:30:12.288Z,100841.30
2018-10-16T22:32:40.730Z,100838.33
2018-10-16T22:35:10.555Z,100838.81
2018-10-16T22:37:39.784Z,100842.76
2018-10-16T22:40:10.120Z,100841.53
2018-10-16T22:42:38.642Z,100836.86
2018-10-16T22:45:07.877Z,100842.56
2018-10-16T22:47:36.313Z,100836.66
2018-10-16T22:50:06.099Z,100836.27
2018-10-16T22:52:34.592Z,100832.05
2018-10-16T22:55:03.125Z,100833.28
2018-10-16T22:57:31.605Z,100827.41
2018-10-16T23:00:00.033Z,100828.67
2018-10-16T23:02:28.444Z,100831.36
2018-10-16T23:04:57.031Z,100839.55
2018-10-16T23:07:25.622Z,100843.93
2018-10-16T23:09:54.055Z,100836.77
2018-10-16T23:12:22.596Z,100836.35
2018-10-16T23:14:51.145Z,100839.48
2018-10-16T23:17:19.578Z,100842.05
2018-10-16T23:19:47.983Z,100841.19
2018-10-16T23:22:16.425Z,100840.89
2018-10-16T23:24:44.863Z,100838.80
2018-10-16T23:27:13.234Z,100837.59
2018-10-16T23:29:41.611Z,100834.59
2018-10-16T23:32:10.091Z,100832.13
2018-10-16T23:34:38.590Z,100830.41
2018-10-16T23:37:07.563Z,100819.72
2018-10-16T23:39:36.206Z,100818.97
2018-10-16T23:42:04.666Z,100819.80
2018-10-16T23:44:33.150Z,100825.78
2018-10-16T23:47:02.354Z,100825.52
2018-10-16T23:49:30.782Z,100821.23
2018-10-16T23:51:59.309Z,100826.48
2018-10-16T23:54:27.765Z,100824.45
2018-10-16T23:56:56.273Z,100817.59
2018-10-16T23:59:24.742Z,100824.45
